createdAt,value
2019-04-16T00:21:42.171Z,4.90
2019-04-16T00:25:08.629Z,5.00
2019-04-16T00:35:21.615Z,4.60
2019-04-16T00:41:47.035Z,4.50
2019-04-16T01:11:27.748Z,3.80
2019-04-16T01:14:58.891Z,3.70
2019-04-16T01:21:53.586Z,3.70
2019-04-16T01:32:57.994Z,3.90
2019-04-16T01:36:35.001Z,3.90
2019-04-16T01:40:37.838Z,3.90
2019-04-16T01:43:57.048Z,3.90
2019-04-16T01:54:22.588Z,4.10
2019-04-16T01:58:12.940Z,4.20
2019-04-16T02:05:20.417Z,4.10
2019-04-16T02:12:25.058Z,4.20
2019-04-16T02:22:26.262Z,3.60
2019-04-16T02:25:35.561Z,3.70
2019-04-16T02:28:51.127Z,3.70
2019-04-16T02:31:55.096Z,3.60
2019-04-16T02:34:35.179Z,3.50
2019-04-16T02:37:42.796Z,3.30
2019-04-16T02:40:34.544Z,3.20
2019-04-16T02:43:15.499Z,3.40
2019-04-16T02:46:15.771Z,3.70
2019-04-16T02:49:16.544Z,3.80
2019-04-16T02:52:14.763Z,3.70
2019-04-16T02:55:11.231Z,3.60
2019-04-16T03:01:07.721Z,3.20
2019-04-16T03:03:55.744Z,3.10
2019-04-16T03:06:26.388Z,3.00
2019-04-16T03:08:56.058Z,2.90
2019-04-16T03:11:31.416Z,3.00
2019-04-16T03:14:01.025Z,3.00
2019-04-16T03:16:49.953Z,2.90
2019-04-16T03:19:26.567Z,2.80
2019-04-16T03:21:59.184Z,2.70
2019-04-16T03:24:27.484Z,2.50
2019-04-16T03:26:57.395Z,2.40
2019-04-16T03:29:30.459Z,2.40
2019-04-16T03:32:00.415Z,2.30
2019-04-16T03:34:30.173Z,2.40
2019-04-16T03:37:04.120Z,2.40
2019-04-16T03:39:33.769Z,2.40
2019-04-16T03:42:04.505Z,2.40
2019-04-16T03:44:41.281Z,2.40
2019-04-16T03:47:10.797Z,2.50
2019-04-16T03:53:07.860Z,2.50
2019-04-16T03:55:39.654Z,2.30
2019-04-16T03:58:44.668Z,2.10
2019-04-16T04:01:15.374Z,2.10
2019-04-16T04:03:44.987Z,2.10
2019-04-16T04:06:14.456Z,2.10
2019-04-16T04:08:47.912Z,2.20
2019-04-16T04:11:15.213Z,2.30
2019-04-16T04:13:49.824Z,2.30
2019-04-16T04:16:16.392Z,2.40
2019-04-16T04:18:45.768Z,2.40
2019-04-16T04:21:15.099Z,2.40
2019-04-16T04:23:44.471Z,2.50
2019-04-16T04:26:13.904Z,2.50
2019-04-16T04:28:43.420Z,2.50
2019-04-16T04:31:13.003Z,2.40
2019-04-16T04:33:43.096Z,2.30
2019-04-16T04:36:12.708Z,2.30
2019-04-16T04:39:02.324Z,2.20
2019-04-16T04:41:33.976Z,2.10
2019-04-16T04:44:04.450Z,1.90
2019-04-16T04:46:34.680Z,1.90
2019-04-16T04:49:04.532Z,1.90
2019-04-16T04:51:36.885Z,1.90
2019-04-16T04:54:04.941Z,2.00
2019-04-16T04:56:34.328Z,2.20
2019-04-16T04:59:05.224Z,2.10
2019-04-16T05:01:34.916Z,2.40
2019-04-16T05:04:20.410Z,3.00
2019-04-16T05:06:48.897Z,3.60
2019-04-16T05:09:18.246Z,3.90
2019-04-16T05:11:49.477Z,4.10
2019-04-16T05:14:39.875Z,4.50
2019-04-16T05:17:09.396Z,4.60
2019-04-16T05:19:39.949Z,4.50
2019-04-16T05:22:09.319Z,4.60
2019-04-16T05:24:38.846Z,5.00
2019-04-16T05:27:09.274Z,5.50
2019-04-16T05:29:38.888Z,6.00
2019-04-16T05:32:08.396Z,6.30
2019-04-16T05:34:38.551Z,6.60
2019-04-16T05:37:08.082Z,6.50
2019-04-16T05:39:58.581Z,6.50
2019-04-16T05:42:27.053Z,6.50
2019-04-16T05:44:56.630Z,6.80
2019-04-16T05:47:26.112Z,6.80
2019-04-16T05:49:57.950Z,6.70
2019-04-16T05:52:26.806Z,6.70
2019-04-16T05:55:19.396Z,6.90
2019-04-16T05:57:49.297Z,7.00
2019-04-16T06:00:28.981Z,7.30
2019-04-16T06:02:58.672Z,7.20
2019-04-16T06:05:28.372Z,7.10
2019-04-16T06:08:09.045Z,6.80
2019-04-16T06:10:40.029Z,6.60
2019-04-16T06:13:31.157Z,6.20
2019-04-16T06:16:25.388Z,6.10
2019-04-16T06:19:19.283Z,6.30
2019-04-16T06:22:14.006Z,6.40
2019-04-16T06:25:09.713Z,6.30
2019-04-16T06:27:54.085Z,6.30
2019-04-16T06:30:58.097Z,7.00
2019-04-16T06:33:56.397Z,7.30
2019-04-16T06:36:40.382Z,7.30
2019-04-16T06:39:20.323Z,7.50
2019-04-16T06:42:05.129Z,7.90
2019-04-16T06:44:37.962Z,8.70
2019-04-16T06:47:22.864Z,9.70
2019-04-16T06:50:14.564Z,10.50
2019-04-16T06:53:23.826Z,10.70
2019-04-16T06:56:10.176Z,10.60
2019-04-16T06:58:58.560Z,10.70
2019-04-16T07:01:49.702Z,11.20
2019-04-16T07:04:46.816Z,11.60
2019-04-16T07:07:40.184Z,12.10
2019-04-16T07:10:12.564Z,12.00
2019-04-16T07:12:42.181Z,12.50
2019-04-16T07:15:11.870Z,12.80
2019-04-16T07:17:41.321Z,12.60
2019-04-16T07:20:13.524Z,13.10
2019-04-16T07:22:41.998Z,13.40
2019-04-16T07:25:11.510Z,13.80
2019-04-16T07:27:46.304Z,14.00
2019-04-16T07:30:21.986Z,15.10
2019-04-16T07:33:05.040Z,16.70
2019-04-16T07:35:48.065Z,17.90
2019-04-16T07:38:48.871Z,18.60
2019-04-16T07:41:37.258Z,20.60
2019-04-16T07:44:13.239Z,20.60
2019-04-16T07:46:57.421Z,21.20
2019-04-16T07:49:31.987Z,21.30
2019-04-16T07:52:24.321Z,22.40
2019-04-16T07:55:27.892Z,23.20
2019-04-16T07:57:57.300Z,23.60
2019-04-16T08:00:26.831Z,25.60
2019-04-16T08:02:56.416Z,26.10
2019-04-16T08:05:27.810Z,26.80
2019-04-16T08:07:56.977Z,27.30
2019-04-16T08:10:26.390Z,27.20
2019-04-16T08:13:07.861Z,27.40
2019-04-16T08:15:37.280Z,27.90
2019-04-16T08:18:06.642Z,27.90
2019-04-16T08:20:36.057Z,28.00
2019-04-16T08:23:24.473Z,28.80
2019-04-16T08:26:29.372Z,28.90
2019-04-16T08:28:58.810Z,28.90
2019-04-16T08:31:29.734Z,29.30
2019-04-16T08:33:59.392Z,29.50
2019-04-16T08:36:29.041Z,30.30
2019-04-16T08:38:58.506Z,30.70
2019-04-16T08:41:28.044Z,28.90
2019-04-16T08:44:02.502Z,28.10
2019-04-16T08:46:29.301Z,27.40
2019-04-16T08:48:58.808Z,27.60
2019-04-16T08:51:30.795Z,27.80
2019-04-16T08:53:59.570Z,27.30
2019-04-16T08:56:29.155Z,27.60
2019-04-16T08:59:01.220Z,27.30
2019-04-16T09:01:31.640Z,26.10
2019-04-16T09:04:02.869Z,25.00
2019-04-16T09:06:32.410Z,24.70
2019-04-16T09:09:13.461Z,25.60
2019-04-16T09:11:43.932Z,25.80
2019-04-16T09:14:13.620Z,26.60
2019-04-16T09:16:57.683Z,24.40
2019-04-16T09:19:27.444Z,24.80
2019-04-16T09:21:56.931Z,26.10
2019-04-16T09:24:33.266Z,26.50
2019-04-16T09:27:28.780Z,27.10
2019-04-16T09:30:16.902Z,27.90
2019-04-16T09:33:07.234Z,28.90
2019-04-16T09:35:46.926Z,28.50
2019-04-16T09:38:45.148Z,28.20
2019-04-16T09:41:39.560Z,27.40
2019-04-16T09:44:09.124Z,27.60
2019-04-16T09:46:53.584Z,25.60
2019-04-16T09:49:09.953Z,26.30
2019-04-16T09:51:39.465Z,26.20
2019-04-16T09:54:12.516Z,26.50
2019-04-16T09:56:40.168Z,27.60
2019-04-16T09:59:29.881Z,28.20
2019-04-16T10:02:17.270Z,28.50
2019-04-16T10:04:46.753Z,29.40
2019-04-16T10:07:16.199Z,30.00
2019-04-16T10:09:45.683Z,31.00
2019-04-16T10:12:15.092Z,31.10
2019-04-16T10:14:44.596Z,31.40
2019-04-16T10:17:14.024Z,30.70
2019-04-16T10:19:44.006Z,29.60
2019-04-16T10:22:13.793Z,29.90
2019-04-16T10:25:05.221Z,30.90
2019-04-16T10:27:39.696Z,31.50
2019-04-16T10:30:34.992Z,32.10
2019-04-16T10:33:04.582Z,32.40
2019-04-16T10:35:33.964Z,32.20
2019-04-16T10:38:15.730Z,32.30
2019-04-16T10:40:49.269Z,31.80
2019-04-16T10:43:44.656Z,31.60
2019-04-16T10:46:30.420Z,31.10
2019-04-16T10:49:11.252Z,31.00
2019-04-16T10:51:50.865Z,31.50
2019-04-16T10:54:29.714Z,31.40
2019-04-16T10:57:16.766Z,31.00
2019-04-16T11:00:00.037Z,31.40
2019-04-16T11:02:41.177Z,30.90
2019-04-16T11:05:45.083Z,30.60
2019-04-16T11:08:15.258Z,30.40
2019-04-16T11:10:44.704Z,29.80
2019-04-16T11:13:26.952Z,30.00
2019-04-16T11:15:58.670Z,30.20
2019-04-16T11:18:28.004Z,30.00
2019-04-16T11:20:57.549Z,29.80
2019-04-16T11:23:27.006Z,29.30
2019-04-16T11:25:56.443Z,29.70
2019-04-16T11:28:25.909Z,28.20
2019-04-16T11:30:57.265Z,27.60
2019-04-16T11:33:27.606Z,28.60
2019-04-16T11:35:57.461Z,28.20
2019-04-16T11:38:27.025Z,28.30
2019-04-16T11:40:56.604Z,29.20
2019-04-16T11:43:26.152Z,29.30
2019-04-16T11:45:55.759Z,29.40
2019-04-16T11:48:25.239Z,29.80
2019-04-16T11:50:54.745Z,29.50
2019-04-16T11:53:24.298Z,29.50
2019-04-16T11:55:53.820Z,28.10
2019-04-16T11:58:32.417Z,27.20
2019-04-16T12:01:08.403Z,26.00
2019-04-16T12:03:59.078Z,25.00
2019-04-16T12:06:40.908Z,24.40
2019-04-16T12:09:28.454Z,24.40
2019-04-16T12:12:02.770Z,24.70
2019-04-16T12:14:43.286Z,24.60
2019-04-16T12:17:53.047Z,24.60
2019-04-16T12:20:39.978Z,24.80
2019-04-16T12:23:21.674Z,25.20
2019-04-16T12:26:37.056Z,26.00
2019-04-16T12:29:28.641Z,26.00
2019-04-16T12:32:17.203Z,26.00
2019-04-16T12:35:05.701Z,25.50
2019-04-16T12:37:53.109Z,25.20
2019-04-16T12:40:42.151Z,24.50
2019-04-16T12:43:36.556Z,23.90
2019-04-16T12:46:37.768Z,23.40
2019-04-16T12:49:25.152Z,22.90
2019-04-16T12:52:17.541Z,22.50
2019-04-16T12:55:06.284Z,22.20
2019-04-16T12:58:00.713Z,21.70
2019-04-16T13:00:43.816Z,21.00
2019-04-16T13:03:35.971Z,20.70
2019-04-16T13:06:11.013Z,20.70
2019-04-16T13:08:53.295Z,20.70
2019-04-16T13:11:28.343Z,20.40
2019-04-16T13:14:13.559Z,20.00
2019-04-16T13:16:55.010Z,19.10
2019-04-16T13:19:49.574Z,18.40
2019-04-16T13:22:21.342Z,17.90
2019-04-16T13:24:56.969Z,17.50
2019-04-16T13:27:44.878Z,17.30
2019-04-16T13:30:16.289Z,17.10
2019-04-16T13:32:45.794Z,16.60
2019-04-16T13:35:15.425Z,16.10
2019-04-16T13:37:44.882Z,15.60
2019-04-16T13:40:15.954Z,15.40
2019-04-16T13:42:45.509Z,15.30
2019-04-16T13:45:37.024Z,15.30
2019-04-16T13:48:16.434Z,15.20
2019-04-16T13:50:53.071Z,14.80
2019-04-16T13:53:30.017Z,14.60
2019-04-16T13:56:20.932Z,14.30
2019-04-16T13:59:01.778Z,14.00
2019-04-16T14:01:34.818Z,13.80
2019-04-16T14:04:04.424Z,13.40
2019-04-16T14:06:34.006Z,13.10
2019-04-16T14:09:03.705Z,12.90
2019-04-16T14:11:33.678Z,12.70
2019-04-16T14:14:07.615Z,12.70
2019-04-16T14:16:34.531Z,12.50
2019-04-16T14:19:06.188Z,12.50
2019-04-16T14:21:35.745Z,12.40
2019-04-16T14:24:05.252Z,12.30
2019-04-16T14:26:34.795Z,12.30
2019-04-16T14:29:06.811Z,12.20
2019-04-16T14:32:30.662Z,12.20
2019-04-16T14:35:02.359Z,12.20
2019-04-16T14:37:31.873Z,12.40
2019-04-16T14:40:15.100Z,12.50
2019-04-16T14:43:23.693Z,12.60
2019-04-16T14:45:59.353Z,12.60
2019-04-16T14:48:25.464Z,12.60
2019-04-16T14:50:55.069Z,12.70
2019-04-16T14:53:42.196Z,12.70
2019-04-16T14:56:19.450Z,12.60
2019-04-16T14:59:34.100Z,12.70
2019-04-16T15:02:40.913Z,12.60
2019-04-16T15:05:41.555Z,12.60
2019-04-16T15:08:29.448Z,12.50
2019-04-16T15:11:17.912Z,12.40
2019-04-16T15:14:03.349Z,12.50
2019-04-16T15:16:50.911Z,12.50
2019-04-16T15:19:32.671Z,12.40
2019-04-16T15:22:24.916Z,12.30
2019-04-16T15:25:32.946Z,12.10
2019-04-16T15:28:12.692Z,12.00
2019-04-16T15:31:36.713Z,12.00
2019-04-16T15:39:23.678Z,11.80
2019-04-16T15:40:54.914Z,11.50
2019-04-16T15:45:22.028Z,11.30
2019-04-16T15:48:09.533Z,11.10
2019-04-16T15:49:57.121Z,11.10
2019-04-16T15:53:09.659Z,10.90
2019-04-16T15:56:01.406Z,10.80
2019-04-16T15:58:36.339Z,10.70
2019-04-16T16:01:23.585Z,10.50
2019-04-16T16:04:10.934Z,10.40
2019-04-16T16:06:48.852Z,10.30
2019-04-16T16:09:23.223Z,10.30
2019-04-16T16:12:03.282Z,10.20
2019-04-16T16:14:38.575Z,10.20
2019-04-16T16:17:05.982Z,10.10
2019-04-16T16:19:35.763Z,10.10
2019-04-16T16:22:11.063Z,10.00
2019-04-16T16:24:42.018Z,10.00
2019-04-16T16:27:08.763Z,10.10
2019-04-16T16:29:38.357Z,10.20
2019-04-16T16:32:07.990Z,10.20
2019-04-16T16:34:37.595Z,10.30
2019-04-16T16:37:07.495Z,10.30
2019-04-16T16:39:37.423Z,10.30
2019-04-16T16:42:07.159Z,10.40
2019-04-16T16:44:36.973Z,10.30
2019-04-16T16:47:18.015Z,10.40
2019-04-16T16:49:47.584Z,10.40
2019-04-16T16:52:41.903Z,10.40
2019-04-16T16:55:19.908Z,10.40
2019-04-16T16:57:55.359Z,10.50
2019-04-16T17:00:59.796Z,10.30
2019-04-16T17:03:40.648Z,10.30
2019-04-16T17:06:10.808Z,10.30
2019-04-16T17:08:40.352Z,10.30
2019-04-16T17:11:16.464Z,10.40
2019-04-16T17:13:41.220Z,10.40
2019-04-16T17:16:13.950Z,10.40
2019-04-16T17:18:45.278Z,10.40
2019-04-16T17:21:14.041Z,10.40
2019-04-16T17:23:43.570Z,10.50
2019-04-16T17:26:15.427Z,10.50
2019-04-16T17:28:44.415Z,10.60
2019-04-16T17:31:14.257Z,10.60
2019-04-16T17:33:43.803Z,10.50
2019-04-16T17:36:13.369Z,10.50
2019-04-16T17:38:42.968Z,10.50
2019-04-16T17:41:15.949Z,10.60
2019-04-16T17:47:48.774Z,10.50
2019-04-16T17:50:39.260Z,10.40
2019-04-16T17:53:16.056Z,10.30
2019-04-16T17:56:01.314Z,10.30
2019-04-16T17:58:36.499Z,10.20
2019-04-16T18:01:24.054Z,10.20
2019-04-16T18:04:00.337Z,10.10
2019-04-16T18:06:55.014Z,10.10
2019-04-16T18:09:36.647Z,10.00
2019-04-16T18:12:43.720Z,10.00
2019-04-16T18:15:28.619Z,9.90
2019-04-16T18:18:03.479Z,9.80
2019-04-16T18:20:57.241Z,9.80
2019-04-16T18:23:49.613Z,9.80
2019-04-16T18:26:38.068Z,9.70
2019-04-16T18:29:36.027Z,9.60
2019-04-16T18:32:21.249Z,9.50
2019-04-16T18:35:16.430Z,9.40
2019-04-16T18:38:31.942Z,9.40
2019-04-16T18:41:12.399Z,9.30
2019-04-16T18:43:52.985Z,9.30
2019-04-16T18:46:30.223Z,9.30
2019-04-16T18:49:04.457Z,9.30
2019-04-16T18:51:34.368Z,9.40
2019-04-16T18:54:04.303Z,9.50
2019-04-16T18:56:33.865Z,9.40
2019-04-16T18:59:03.609Z,9.50
2019-04-16T19:01:33.703Z,9.50
2019-04-16T19:04:03.643Z,9.50
2019-04-16T19:06:33.347Z,9.60
2019-04-16T19:09:21.664Z,9.60
2019-04-16T19:11:51.167Z,9.60
2019-04-16T19:14:20.845Z,9.60
2019-04-16T19:16:50.601Z,9.50
2019-04-16T19:19:22.065Z,9.50
2019-04-16T19:21:52.310Z,9.40
2019-04-16T19:24:22.289Z,9.40
2019-04-16T19:26:51.816Z,9.40
2019-04-16T19:29:21.502Z,9.50
2019-04-16T19:31:54.966Z,9.50
2019-04-16T19:34:22.515Z,9.50
2019-04-16T19:36:52.035Z,9.50
2019-04-16T19:39:21.618Z,9.50
2019-04-16T19:42:11.191Z,9.50
2019-04-16T19:44:40.610Z,9.50
2019-04-16T19:47:10.464Z,9.50
2019-04-16T19:49:40.221Z,9.50
2019-04-16T19:52:09.906Z,9.50
2019-04-16T19:54:39.664Z,9.50
2019-04-16T19:57:09.428Z,9.40
2019-04-16T19:59:39.972Z,9.30
2019-04-16T20:02:10.082Z,9.20
2019-04-16T20:04:41.377Z,9.10
2019-04-16T20:07:12.860Z,9.10
2019-04-16T20:09:45.818Z,9.00
2019-04-16T20:12:15.828Z,8.90
2019-04-16T20:14:45.627Z,8.80
2019-04-16T20:17:15.548Z,8.70
2019-04-16T20:19:58.363Z,8.60
2019-04-16T20:22:32.014Z,8.50
2019-04-16T20:25:01.981Z,8.40
2019-04-16T20:27:31.711Z,8.30
2019-04-16T20:30:01.742Z,8.30
2019-04-16T20:32:34.370Z,8.10
2019-04-16T20:35:03.174Z,8.10
2019-04-16T20:37:32.883Z,8.00
2019-04-16T20:40:02.606Z,8.00
2019-04-16T20:42:33.670Z,8.00
2019-04-16T20:45:03.884Z,8.10
2019-04-16T20:47:38.829Z,8.00
2019-04-16T20:50:06.772Z,8.00
2019-04-16T20:52:36.646Z,8.00
2019-04-16T20:55:07.447Z,8.10
2019-04-16T20:57:39.090Z,8.00
2019-04-16T21:00:11.671Z,8.10
2019-04-16T21:02:41.909Z,8.10
2019-04-16T21:05:21.922Z,8.10
2019-04-16T21:07:46.654Z,8.20
2019-04-16T21:10:15.045Z,8.20
2019-04-16T21:12:45.494Z,8.20
2019-04-16T21:15:15.852Z,8.10
2019-04-16T21:17:45.552Z,8.10
2019-04-16T21:20:19.373Z,8.10
2019-04-16T21:22:47.186Z,8.10
2019-04-16T21:25:16.930Z,8.00
2019-04-16T21:27:56.810Z,8.00
2019-04-16T21:30:26.535Z,8.00
2019-04-16T21:33:04.787Z,8.00
2019-04-16T21:35:37.717Z,8.00
2019-04-16T21:38:29.143Z,8.10
2019-04-16T21:40:58.965Z,8.10
2019-04-16T21:43:28.761Z,8.10
2019-04-16T21:45:58.478Z,8.10
2019-04-16T21:48:28.486Z,8.00
2019-04-16T21:50:58.333Z,8.10
2019-04-16T21:53:28.771Z,8.10
2019-04-16T21:55:58.763Z,8.20
2019-04-16T21:58:28.689Z,8.20
2019-04-16T22:01:21.798Z,8.30
2019-04-16T22:03:57.038Z,8.30
2019-04-16T22:06:26.854Z,8.30
2019-04-16T22:08:59.087Z,8.30
2019-04-16T22:11:27.812Z,8.30
2019-04-16T22:13:57.611Z,8.30
2019-04-16T22:16:29.870Z,8.20
2019-04-16T22:18:58.937Z,8.20
2019-04-16T22:21:28.653Z,8.20
2019-04-16T22:23:58.343Z,8.20
2019-04-16T22:26:28.137Z,8.20
2019-04-16T22:28:57.878Z,8.20
2019-04-16T22:31:27.561Z,8.20
2019-04-16T22:33:57.297Z,8.20
2019-04-16T22:36:27.096Z,8.20
2019-04-16T22:39:03.360Z,8.20
2019-04-16T22:41:48.848Z,8.20
2019-04-16T22:44:49.633Z,8.20
2019-04-16T22:47:23.989Z,8.20
2019-04-16T22:49:55.133Z,8.10
2019-04-16T22:52:25.077Z,8.10
2019-04-16T22:54:54.874Z,8.10
2019-04-16T22:58:03.558Z,8.20
2019-04-16T23:00:44.475Z,8.20
2019-04-16T23:03:16.571Z,8.30
2019-04-16T23:05:45.735Z,8.30
2019-04-16T23:08:15.347Z,8.30
2019-04-16T23:10:45.184Z,8.40
2019-04-16T23:13:14.923Z,8.40
2019-04-16T23:15:45.059Z,8.40
2019-04-16T23:18:17.527Z,8.40
2019-04-16T23:20:46.465Z,8.50
2019-04-16T23:23:19.114Z,8.40
2019-04-16T23:25:47.742Z,8.40
2019-04-16T23:28:17.522Z,8.40
2019-04-16T23:30:47.850Z,8.40
2019-04-16T23:33:18.532Z,8.40
2019-04-16T23:35:48.175Z,8.40
2019-04-16T23:38:17.869Z,8.40
2019-04-16T23:40:47.631Z,8.40
2019-04-16T23:43:42.221Z,8.40
2019-04-16T23:46:42.973Z,8.40
2019-04-16T23:49:37.551Z,8.30
2019-04-16T23:52:19.212Z,8.30
2019-04-16T23:54:58.752Z,8.20
2019-04-16T23:57:35.963Z,8.20
